sensor_id;sensor_type;location;lat;lon;timestamp;P1;durP1;ratioP1;P2;durP2;ratioP2
23470;SDS011;11908;50.806;4.424;2023-02-26T00:00:25;13.90;;;4.78;;
23470;SDS011;11908;50.806;4.424;2023-02-26T00:02:50;14.50;;;5.20;;
23470;SDS011;11908;50.806;4.424;2023-02-26T00:05:16;19.15;;;5.00;;
23470;SDS011;11908;50.806;4.424;2023-02-26T00:07:42;10.10;;;5.18;;
23470;SDS011;11908;50.806;4.424;2023-02-26T00:10:08;17.00;;;6.18;;
23470;SDS011;11908;50.806;4.424;2023-02-26T00:12:36;15.95;;;6.57;;
23470;SDS011;11908;50.806;4.424;2023-02-26T00:15:02;16.85;;;6.53;;
23470;SDS011;11908;50.806;4.424;2023-02-26T00:20:06;19.60;;;6.50;;
23470;SDS011;11908;50.806;4.424;2023-02-26T00:22:36;22.02;;;8.10;;
23470;SDS011;11908;50.806;4.424;2023-02-26T00:25:03;15.77;;;7.80;;
23470;SDS011;11908;50.806;4.424;2023-02-26T00:27:29;14.90;;;7.10;;
23470;SDS011;11908;50.806;4.424;2023-02-26T00:29:55;21.45;;;8.10;;
23470;SDS011;11908;50.806;4.424;2023-02-26T00:32:21;17.67;;;7.03;;
23470;SDS011;11908;50.806;4.424;2023-02-26T00:34:47;15.30;;;7.10;;
23470;SDS011;11908;50.806;4.424;2023-02-26T00:37:26;18.75;;;7.60;;
23470;SDS011;11908;50.806;4.424;2023-02-26T00:42:45;17.15;;;7.53;;
23470;SDS011;11908;50.806;4.424;2023-02-26T00:45:11;17.75;;;7.65;;
23470;SDS011;11908;50.806;4.424;2023-02-26T00:50:23;18.88;;;6.57;;
23470;SDS011;11908;50.806;4.424;2023-02-26T00:55:51;15.60;;;8.13;;
23470;SDS011;11908;50.806;4.424;2023-02-26T00:58:16;19.20;;;7.53;;
23470;SDS011;11908;50.806;4.424;2023-02-26T01:00:42;16.10;;;6.88;;
23470;SDS011;11908;50.806;4.424;2023-02-26T01:03:08;18.13;;;6.38;;
23470;SDS011;11908;50.806;4.424;2023-02-26T01:05:35;15.65;;;7.18;;
23470;SDS011;11908;50.806;4.424;2023-02-26T01:08:12;18.63;;;6.60;;
23470;SDS011;11908;50.806;4.424;2023-02-26T01:11:01;12.45;;;6.65;;
23470;SDS011;11908;50.806;4.424;2023-02-26T01:13:27;19.27;;;6.38;;
23470;SDS011;11908;50.806;4.424;2023-02-26T01:15:58;16.98;;;6.50;;
23470;SDS011;11908;50.806;4.424;2023-02-26T01:18:37;17.00;;;6.03;;
23470;SDS011;11908;50.806;4.424;2023-02-26T01:21:09;16.17;;;6.93;;
23470;SDS011;11908;50.806;4.424;2023-02-26T01:23:44;16.27;;;6.30;;
23470;SDS011;11908;50.806;4.424;2023-02-26T01:26:23;12.95;;;5.72;;
23470;SDS011;11908;50.806;4.424;2023-02-26T01:28:51;14.70;;;5.85;;
23470;SDS011;11908;50.806;4.424;2023-02-26T01:31:36;18.08;;;6.57;;
23470;SDS011;11908;50.806;4.424;2023-02-26T01:34:17;17.60;;;6.15;;
23470;SDS011;11908;50.806;4.424;2023-02-26T01:36:59;14.82;;;5.82;;
23470;SDS011;11908;50.806;4.424;2023-02-26T01:39:33;10.85;;;5.63;;
23470;SDS011;11908;50.806;4.424;2023-02-26T01:42:25;8.85;;;5.03;;
23470;SDS011;11908;50.806;4.424;2023-02-26T01:45:03;20.20;;;6.97;;
23470;SDS011;11908;50.806;4.424;2023-02-26T01:47:46;16.33;;;5.97;;
23470;SDS011;11908;50.806;4.424;2023-02-26T01:50:21;11.80;;;5.75;;
23470;SDS011;11908;50.806;4.424;2023-02-26T01:55:16;13.23;;;6.28;;
23470;SDS011;11908;50.806;4.424;2023-02-26T01:57:48;13.52;;;6.47;;
23470;SDS011;11908;50.806;4.424;2023-02-26T02:00:20;20.85;;;6.35;;
23470;SDS011;11908;50.806;4.424;2023-02-26T02:02:46;14.90;;;5.65;;
23470;SDS011;11908;50.806;4.424;2023-02-26T02:05:24;11.43;;;5.25;;
23470;SDS011;11908;50.806;4.424;2023-02-26T02:07:54;14.57;;;4.97;;
23470;SDS011;11908;50.806;4.424;2023-02-26T02:10:21;13.70;;;5.80;;
23470;SDS011;11908;50.806;4.424;2023-02-26T02:18:52;11.95;;;5.45;;
23470;SDS011;11908;50.806;4.424;2023-02-26T02:24:17;12.70;;;5.00;;
23470;SDS011;11908;50.806;4.424;2023-02-26T02:26:55;18.08;;;5.50;;
23470;SDS011;11908;50.806;4.424;2023-02-26T02:32:24;15.80;;;5.32;;
23470;SDS011;11908;50.806;4.424;2023-02-26T02:35:07;15.88;;;5.45;;
23470;SDS011;11908;50.806;4.424;2023-02-26T02:40:39;14.68;;;5.07;;
23470;SDS011;11908;50.806;4.424;2023-02-26T02:43:17;10.38;;;4.57;;
23470;SDS011;11908;50.806;4.424;2023-02-26T02:45:57;14.90;;;4.38;;
23470;SDS011;11908;50.806;4.424;2023-02-26T02:48:30;15.95;;;4.75;;
23470;SDS011;11908;50.806;4.424;2023-02-26T02:51:09;12.25;;;4.10;;
23470;SDS011;11908;50.806;4.424;2023-02-26T02:56:43;10.93;;;4.00;;
23470;SDS011;11908;50.806;4.424;2023-02-26T03:04:30;14.93;;;3.97;;
23470;SDS011;11908;50.806;4.424;2023-02-26T03:06:56;17.77;;;4.32;;
23470;SDS011;11908;50.806;4.424;2023-02-26T03:09:21;10.60;;;3.67;;
23470;SDS011;11908;50.806;4.424;2023-02-26T03:11:47;13.65;;;3.78;;
23470;SDS011;11908;50.806;4.424;2023-02-26T03:14:13;14.90;;;3.90;;
23470;SDS011;11908;50.806;4.424;2023-02-26T03:22:21;10.85;;;3.58;;
23470;SDS011;11908;50.806;4.424;2023-02-26T03:27:57;12.07;;;3.33;;
23470;SDS011;11908;50.806;4.424;2023-02-26T03:30:41;12.40;;;3.30;;
23470;SDS011;11908;50.806;4.424;2023-02-26T03:36:19;14.80;;;3.60;;
23470;SDS011;11908;50.806;4.424;2023-02-26T03:44:12;8.82;;;3.10;;
23470;SDS011;11908;50.806;4.424;2023-02-26T03:46:44;10.50;;;2.70;;
23470;SDS011;11908;50.806;4.424;2023-02-26T03:49:17;10.85;;;3.40;;
23470;SDS011;11908;50.806;4.424;2023-02-26T03:51:49;9.80;;;3.40;;
23470;SDS011;11908;50.806;4.424;2023-02-26T03:54:20;9.90;;;3.00;;
23470;SDS011;11908;50.806;4.424;2023-02-26T03:56:50;8.90;;;2.83;;
23470;SDS011;11908;50.806;4.424;2023-02-26T03:59:16;16.35;;;3.47;;
23470;SDS011;11908;50.806;4.424;2023-02-26T04:02:02;6.28;;;2.60;;
23470;SDS011;11908;50.806;4.424;2023-02-26T04:04:45;8.63;;;3.38;;
23470;SDS011;11908;50.806;4.424;2023-02-26T04:07:17;12.65;;;2.95;;
23470;SDS011;11908;50.806;4.424;2023-02-26T04:09:45;7.43;;;2.90;;
23470;SDS011;11908;50.806;4.424;2023-02-26T04:12:12;10.20;;;3.10;;
23470;SDS011;11908;50.806;4.424;2023-02-26T04:14:38;9.23;;;3.22;;
23470;SDS011;11908;50.806;4.424;2023-02-26T04:17:04;11.50;;;3.00;;
23470;SDS011;11908;50.806;4.424;2023-02-26T04:19:30;10.90;;;3.20;;
23470;SDS011;11908;50.806;4.424;2023-02-26T04:21:56;12.50;;;2.70;;
23470;SDS011;11908;50.806;4.424;2023-02-26T04:24:22;9.40;;;2.35;;
23470;SDS011;11908;50.806;4.424;2023-02-26T04:26:48;6.57;;;2.78;;
23470;SDS011;11908;50.806;4.424;2023-02-26T04:29:13;10.00;;;3.47;;
23470;SDS011;11908;50.806;4.424;2023-02-26T04:31:39;9.27;;;3.00;;
23470;SDS011;11908;50.806;4.424;2023-02-26T04:34:05;9.30;;;2.88;;
23470;SDS011;11908;50.806;4.424;2023-02-26T04:36:31;6.10;;;2.70;;
23470;SDS011;11908;50.806;4.424;2023-02-26T04:38:57;6.18;;;2.85;;
23470;SDS011;11908;50.806;4.424;2023-02-26T04:41:23;11.75;;;3.45;;
23470;SDS011;11908;50.806;4.424;2023-02-26T04:43:48;5.55;;;2.50;;
23470;SDS011;11908;50.806;4.424;2023-02-26T04:46:14;8.90;;;2.65;;
23470;SDS011;11908;50.806;4.424;2023-02-26T04:48:40;7.07;;;3.08;;
23470;SDS011;11908;50.806;4.424;2023-02-26T04:51:06;13.00;;;3.63;;
23470;SDS011;11908;50.806;4.424;2023-02-26T04:53:31;8.10;;;2.75;;
23470;SDS011;11908;50.806;4.424;2023-02-26T04:55:57;10.63;;;3.15;;
23470;SDS011;11908;50.806;4.424;2023-02-26T04:58:23;6.10;;;2.78;;
23470;SDS011;11908;50.806;4.424;2023-02-26T05:00:49;6.75;;;2.40;;
23470;SDS011;11908;50.806;4.424;2023-02-26T05:03:16;6.25;;;3.20;;
23470;SDS011;11908;50.806;4.424;2023-02-26T05:05:42;9.40;;;2.88;;
23470;SDS011;11908;50.806;4.424;2023-02-26T05:08:08;5.75;;;2.85;;
23470;SDS011;11908;50.806;4.424;2023-02-26T05:10:34;6.28;;;2.78;;
23470;SDS011;11908;50.806;4.424;2023-02-26T05:13:00;9.80;;;2.88;;
23470;SDS011;11908;50.806;4.424;2023-02-26T05:15:26;11.07;;;2.67;;
23470;SDS011;11908;50.806;4.424;2023-02-26T05:17:52;6.15;;;2.55;;
23470;SDS011;11908;50.806;4.424;2023-02-26T05:20:17;8.07;;;3.05;;
23470;SDS011;11908;50.806;4.424;2023-02-26T05:22:43;8.23;;;2.60;;
23470;SDS011;11908;50.806;4.424;2023-02-26T05:25:09;6.75;;;2.85;;
23470;SDS011;11908;50.806;4.424;2023-02-26T05:27:37;8.93;;;2.80;;
23470;SDS011;11908;50.806;4.424;2023-02-26T05:30:04;8.95;;;2.70;;
23470;SDS011;11908;50.806;4.424;2023-02-26T05:32:30;7.45;;;2.50;;
23470;SDS011;11908;50.806;4.424;2023-02-26T05:34:56;6.50;;;2.30;;
23470;SDS011;11908;50.806;4.424;2023-02-26T05:37:22;7.63;;;2.63;;
23470;SDS011;11908;50.806;4.424;2023-02-26T05:39:47;13.23;;;2.75;;
23470;SDS011;11908;50.806;4.424;2023-02-26T05:42:13;11.68;;;2.63;;
23470;SDS011;11908;50.806;4.424;2023-02-26T05:44:39;9.60;;;2.83;;
23470;SDS011;11908;50.806;4.424;2023-02-26T05:47:05;7.70;;;2.30;;
23470;SDS011;11908;50.806;4.424;2023-02-26T05:49:31;8.20;;;3.10;;
23470;SDS011;11908;50.806;4.424;2023-02-26T05:51:57;10.45;;;2.65;;
23470;SDS011;11908;50.806;4.424;2023-02-26T05:54:22;13.13;;;2.67;;
23470;SDS011;11908;50.806;4.424;2023-02-26T05:56:48;12.80;;;2.80;;
23470;SDS011;11908;50.806;4.424;2023-02-26T05:59:14;11.52;;;2.58;;
23470;SDS011;11908;50.806;4.424;2023-02-26T06:01:39;17.15;;;2.88;;
23470;SDS011;11908;50.806;4.424;2023-02-26T06:04:06;7.18;;;2.20;;
23470;SDS011;11908;50.806;4.424;2023-02-26T06:06:33;8.73;;;2.50;;
23470;SDS011;11908;50.806;4.424;2023-02-26T06:08:59;13.60;;;2.75;;
23470;SDS011;11908;50.806;4.424;2023-02-26T06:11:26;9.32;;;2.70;;
23470;SDS011;11908;50.806;4.424;2023-02-26T06:13:55;7.38;;;2.55;;
23470;SDS011;11908;50.806;4.424;2023-02-26T06:16:21;12.45;;;2.63;;
23470;SDS011;11908;50.806;4.424;2023-02-26T06:18:47;8.82;;;2.28;;
23470;SDS011;11908;50.806;4.424;2023-02-26T06:21:13;7.97;;;2.35;;
23470;SDS011;11908;50.806;4.424;2023-02-26T06:23:40;5.97;;;2.30;;
23470;SDS011;11908;50.806;4.424;2023-02-26T06:26:06;7.78;;;2.10;;
23470;SDS011;11908;50.806;4.424;2023-02-26T06:28:32;12.93;;;2.90;;
23470;SDS011;11908;50.806;4.424;2023-02-26T06:30:57;10.65;;;2.38;;
23470;SDS011;11908;50.806;4.424;2023-02-26T06:33:23;10.68;;;2.58;;
23470;SDS011;11908;50.806;4.424;2023-02-26T06:35:49;7.20;;;2.72;;
23470;SDS011;11908;50.806;4.424;2023-02-26T06:38:15;6.60;;;2.40;;
23470;SDS011;11908;50.806;4.424;2023-02-26T06:40:41;6.63;;;2.35;;
23470;SDS011;11908;50.806;4.424;2023-02-26T06:43:08;7.57;;;2.63;;
23470;SDS011;11908;50.806;4.424;2023-02-26T06:45:33;6.18;;;2.38;;
23470;SDS011;11908;50.806;4.424;2023-02-26T06:47:59;8.50;;;2.22;;
23470;SDS011;11908;50.806;4.424;2023-02-26T06:50:26;6.20;;;2.53;;
23470;SDS011;11908;50.806;4.424;2023-02-26T06:52:51;10.30;;;2.78;;
23470;SDS011;11908;50.806;4.424;2023-02-26T06:55:17;8.63;;;3.10;;
23470;SDS011;11908;50.806;4.424;2023-02-26T06:57:43;6.97;;;2.33;;
23470;SDS011;11908;50.806;4.424;2023-02-26T07:00:08;5.63;;;2.53;;
23470;SDS011;11908;50.806;4.424;2023-02-26T07:02:35;9.52;;;2.08;;
23470;SDS011;11908;50.806;4.424;2023-02-26T07:05:00;7.50;;;2.38;;
23470;SDS011;11908;50.806;4.424;2023-02-26T07:07:26;7.40;;;2.15;;
23470;SDS011;11908;50.806;4.424;2023-02-26T07:09:52;10.25;;;3.60;;
23470;SDS011;11908;50.806;4.424;2023-02-26T07:12:17;8.05;;;2.42;;
23470;SDS011;11908;50.806;4.424;2023-02-26T07:14:43;7.97;;;2.50;;
23470;SDS011;11908;50.806;4.424;2023-02-26T07:17:10;9.15;;;2.13;;
23470;SDS011;11908;50.806;4.424;2023-02-26T07:19:44;10.07;;;2.20;;
23470;SDS011;11908;50.806;4.424;2023-02-26T07:22:17;6.23;;;2.10;;
23470;SDS011;11908;50.806;4.424;2023-02-26T07:24:44;13.68;;;2.30;;
23470;SDS011;11908;50.806;4.424;2023-02-26T07:27:10;6.35;;;2.10;;
23470;SDS011;11908;50.806;4.424;2023-02-26T07:29:36;6.82;;;2.38;;
23470;SDS011;11908;50.806;4.424;2023-02-26T07:32:02;8.32;;;2.22;;
23470;SDS011;11908;50.806;4.424;2023-02-26T07:34:28;5.10;;;1.80;;
23470;SDS011;11908;50.806;4.424;2023-02-26T07:36:55;8.88;;;2.05;;
23470;SDS011;11908;50.806;4.424;2023-02-26T07:39:20;10.38;;;2.53;;
23470;SDS011;11908;50.806;4.424;2023-02-26T07:41:46;6.18;;;1.63;;
23470;SDS011;11908;50.806;4.424;2023-02-26T07:44:12;9.15;;;1.92;;
23470;SDS011;11908;50.806;4.424;2023-02-26T07:46:38;6.60;;;1.70;;
23470;SDS011;11908;50.806;4.424;2023-02-26T07:49:03;3.80;;;1.40;;
23470;SDS011;11908;50.806;4.424;2023-02-26T07:51:29;6.10;;;1.83;;
23470;SDS011;11908;50.806;4.424;2023-02-26T07:53:55;5.32;;;1.83;;
23470;SDS011;11908;50.806;4.424;2023-02-26T07:56:20;7.20;;;1.90;;
23470;SDS011;11908;50.806;4.424;2023-02-26T07:58:46;3.97;;;1.73;;
23470;SDS011;11908;50.806;4.424;2023-02-26T08:01:12;7.07;;;1.90;;
23470;SDS011;11908;50.806;4.424;2023-02-26T08:03:37;9.48;;;1.83;;
23470;SDS011;11908;50.806;4.424;2023-02-26T08:06:03;8.13;;;1.98;;
23470;SDS011;11908;50.806;4.424;2023-02-26T08:08:29;6.63;;;1.70;;
23470;SDS011;11908;50.806;4.424;2023-02-26T08:10:58;6.70;;;1.80;;
23470;SDS011;11908;50.806;4.424;2023-02-26T08:13:25;5.93;;;1.70;;
23470;SDS011;11908;50.806;4.424;2023-02-26T08:15:50;6.30;;;1.85;;
23470;SDS011;11908;50.806;4.424;2023-02-26T08:18:16;5.40;;;2.35;;
23470;SDS011;11908;50.806;4.424;2023-02-26T08:20:41;8.80;;;1.98;;
23470;SDS011;11908;50.806;4.424;2023-02-26T08:23:07;8.40;;;2.08;;
23470;SDS011;11908;50.806;4.424;2023-02-26T08:25:33;7.72;;;1.55;;
23470;SDS011;11908;50.806;4.424;2023-02-26T08:27:58;6.65;;;1.92;;
23470;SDS011;11908;50.806;4.424;2023-02-26T08:30:25;9.18;;;1.83;;
23470;SDS011;11908;50.806;4.424;2023-02-26T08:32:50;1.95;;;1.45;;
23470;SDS011;11908;50.806;4.424;2023-02-26T08:35:16;5.85;;;1.63;;
23470;SDS011;11908;50.806;4.424;2023-02-26T08:37:42;6.07;;;1.70;;
23470;SDS011;11908;50.806;4.424;2023-02-26T08:40:08;3.97;;;1.50;;
23470;SDS011;11908;50.806;4.424;2023-02-26T08:42:34;5.65;;;1.85;;
23470;SDS011;11908;50.806;4.424;2023-02-26T08:45:00;8.20;;;1.73;;
23470;SDS011;11908;50.806;4.424;2023-02-26T08:47:26;5.35;;;1.42;;
23470;SDS011;11908;50.806;4.424;2023-02-26T08:49:52;6.78;;;1.50;;
23470;SDS011;11908;50.806;4.424;2023-02-26T08:52:18;6.28;;;1.70;;
23470;SDS011;11908;50.806;4.424;2023-02-26T08:54:44;4.60;;;1.50;;
23470;SDS011;11908;50.806;4.424;2023-02-26T08:57:10;5.22;;;1.77;;
23470;SDS011;11908;50.806;4.424;2023-02-26T08:59:36;8.93;;;1.70;;
23470;SDS011;11908;50.806;4.424;2023-02-26T09:02:01;4.90;;;1.42;;
23470;SDS011;11908;50.806;4.424;2023-02-26T09:04:27;6.55;;;1.40;;
23470;SDS011;11908;50.806;4.424;2023-02-26T09:06:53;4.18;;;1.60;;
23470;SDS011;11908;50.806;4.424;2023-02-26T09:09:19;6.93;;;1.63;;
23470;SDS011;11908;50.806;4.424;2023-02-26T09:11:45;5.47;;;1.77;;
23470;SDS011;11908;50.806;4.424;2023-02-26T09:14:11;5.07;;;1.50;;
23470;SDS011;11908;50.806;4.424;2023-02-26T09:16:37;2.85;;;1.15;;
23470;SDS011;11908;50.806;4.424;2023-02-26T09:19:03;2.85;;;1.08;;
23470;SDS011;11908;50.806;4.424;2023-02-26T09:21:30;4.00;;;1.45;;
23470;SDS011;11908;50.806;4.424;2023-02-26T09:23:56;5.28;;;1.15;;
23470;SDS011;11908;50.806;4.424;2023-02-26T09:26:21;4.35;;;1.55;;
23470;SDS011;11908;50.806;4.424;2023-02-26T09:28:47;3.90;;;1.40;;
23470;SDS011;11908;50.806;4.424;2023-02-26T09:31:13;5.85;;;1.40;;
23470;SDS011;11908;50.806;4.424;2023-02-26T09:33:39;7.05;;;2.03;;
23470;SDS011;11908;50.806;4.424;2023-02-26T09:36:05;3.60;;;1.30;;
23470;SDS011;11908;50.806;4.424;2023-02-26T09:38:30;4.97;;;1.70;;
23470;SDS011;11908;50.806;4.424;2023-02-26T09:40:57;3.95;;;0.98;;
23470;SDS011;11908;50.806;4.424;2023-02-26T09:49:14;4.25;;;1.48;;
23470;SDS011;11908;50.806;4.424;2023-02-26T09:52:09;3.80;;;1.15;;
23470;SDS011;11908;50.806;4.424;2023-02-26T09:54:48;5.70;;;1.55;;
23470;SDS011;11908;50.806;4.424;2023-02-26T09:57:25;5.50;;;1.73;;
23470;SDS011;11908;50.806;4.424;2023-02-26T09:59:55;7.43;;;1.27;;
23470;SDS011;11908;50.806;4.424;2023-02-26T10:02:38;4.38;;;1.30;;
23470;SDS011;11908;50.806;4.424;2023-02-26T10:05:18;4.32;;;1.33;;
23470;SDS011;11908;50.806;4.424;2023-02-26T10:07:57;4.32;;;1.30;;
23470;SDS011;11908;50.806;4.424;2023-02-26T10:10:31;3.97;;;1.35;;
23470;SDS011;11908;50.806;4.424;2023-02-26T10:16:06;3.33;;;1.17;;
23470;SDS011;11908;50.806;4.424;2023-02-26T10:18:39;2.88;;;1.20;;
23470;SDS011;11908;50.806;4.424;2023-02-26T10:21:32;2.92;;;1.13;;
23470;SDS011;11908;50.806;4.424;2023-02-26T10:24:05;3.95;;;1.38;;
23470;SDS011;11908;50.806;4.424;2023-02-26T10:26:39;3.53;;;1.25;;
23470;SDS011;11908;50.806;4.424;2023-02-26T10:29:25;5.25;;;1.33;;
23470;SDS011;11908;50.806;4.424;2023-02-26T10:32:05;4.00;;;1.02;;
23470;SDS011;11908;50.806;4.424;2023-02-26T10:37:18;6.80;;;1.40;;
23470;SDS011;11908;50.806;4.424;2023-02-26T10:45:35;5.28;;;0.95;;
23470;SDS011;11908;50.806;4.424;2023-02-26T10:50:51;3.15;;;0.90;;
23470;SDS011;11908;50.806;4.424;2023-02-26T10:53:20;2.78;;;1.10;;
23470;SDS011;11908;50.806;4.424;2023-02-26T10:55:48;3.25;;;0.85;;
23470;SDS011;11908;50.806;4.424;2023-02-26T10:58:24;5.15;;;1.27;;
23470;SDS011;11908;50.806;4.424;2023-02-26T11:00:51;3.72;;;1.00;;
23470;SDS011;11908;50.806;4.424;2023-02-26T11:03:19;4.00;;;1.15;;
23470;SDS011;11908;50.806;4.424;2023-02-26T11:05:53;3.63;;;1.08;;
23470;SDS011;11908;50.806;4.424;2023-02-26T11:08:27;4.50;;;0.90;;
23470;SDS011;11908;50.806;4.424;2023-02-26T11:11:00;4.10;;;1.20;;
23470;SDS011;11908;50.806;4.424;2023-02-26T11:13:29;3.10;;;0.70;;
23470;SDS011;11908;50.806;4.424;2023-02-26T11:15:57;3.17;;;0.90;;
23470;SDS011;11908;50.806;4.424;2023-02-26T11:21:38;6.70;;;3.25;;
23470;SDS011;11908;50.806;4.424;2023-02-26T11:24:07;1.98;;;1.33;;
23470;SDS011;11908;50.806;4.424;2023-02-26T11:26:35;5.13;;;1.00;;
23470;SDS011;11908;50.806;4.424;2023-02-26T11:29:03;1.95;;;1.00;;
23470;SDS011;11908;50.806;4.424;2023-02-26T11:31:29;1.00;;;0.90;;
23470;SDS011;11908;50.806;4.424;2023-02-26T11:34:03;1.02;;;0.57;;
23470;SDS011;11908;50.806;4.424;2023-02-26T11:36:32;2.60;;;0.88;;
23470;SDS011;11908;50.806;4.424;2023-02-26T11:39:03;4.70;;;1.38;;
23470;SDS011;11908;50.806;4.424;2023-02-26T11:41:39;3.03;;;1.00;;
23470;SDS011;11908;50.806;4.424;2023-02-26T11:44:07;1.75;;;0.90;;
23470;SDS011;11908;50.806;4.424;2023-02-26T11:46:40;1.80;;;0.93;;
23470;SDS011;11908;50.806;4.424;2023-02-26T11:49:10;3.35;;;1.10;;
23470;SDS011;11908;50.806;4.424;2023-02-26T11:51:38;2.70;;;0.88;;
23470;SDS011;11908;50.806;4.424;2023-02-26T11:54:20;1.20;;;0.80;;
23470;SDS011;11908;50.806;4.424;2023-02-26T11:56:47;3.97;;;0.80;;
23470;SDS011;11908;50.806;4.424;2023-02-26T11:59:17;1.70;;;0.95;;
23470;SDS011;11908;50.806;4.424;2023-02-26T12:01:46;3.33;;;0.85;;
23470;SDS011;11908;50.806;4.424;2023-02-26T12:04:14;2.42;;;1.13;;
23470;SDS011;11908;50.806;4.424;2023-02-26T12:06:44;3.25;;;1.08;;
23470;SDS011;11908;50.806;4.424;2023-02-26T12:09:12;6.22;;;0.82;;
23470;SDS011;11908;50.806;4.424;2023-02-26T12:14:29;3.65;;;0.95;;
23470;SDS011;11908;50.806;4.424;2023-02-26T12:17:26;1.67;;;0.88;;
23470;SDS011;11908;50.806;4.424;2023-02-26T12:28:33;1.45;;;0.80;;
23470;SDS011;11908;50.806;4.424;2023-02-26T13:04:49;1.60;;;1.05;;
23470;SDS011;11908;50.806;4.424;2023-02-26T13:10:35;2.67;;;1.02;;
23470;SDS011;11908;50.806;4.424;2023-02-26T13:13:25;4.32;;;1.48;;
23470;SDS011;11908;50.806;4.424;2023-02-26T13:16:05;3.60;;;1.00;;
23470;SDS011;11908;50.806;4.424;2023-02-26T13:18:53;1.85;;;0.90;;
23470;SDS011;11908;50.806;4.424;2023-02-26T13:21:25;2.15;;;0.85;;
23470;SDS011;11908;50.806;4.424;2023-02-26T13:24:11;3.92;;;1.23;;
23470;SDS011;11908;50.806;4.424;2023-02-26T13:26:43;1.58;;;0.90;;
23470;SDS011;11908;50.806;4.424;2023-02-26T13:29:24;1.52;;;0.80;;
23470;SDS011;11908;50.806;4.424;2023-02-26T13:32:00;3.15;;;1.10;;
23470;SDS011;11908;50.806;4.424;2023-02-26T13:34:35;3.67;;;1.10;;
23470;SDS011;11908;50.806;4.424;2023-02-26T13:37:32;3.13;;;1.05;;
23470;SDS011;11908;50.806;4.424;2023-02-26T13:51:44;1.15;;;0.80;;
23470;SDS011;11908;50.806;4.424;2023-02-26T13:56:42;2.60;;;1.20;;
23470;SDS011;11908;50.806;4.424;2023-02-26T14:04:51;5.00;;;1.10;;
23470;SDS011;11908;50.806;4.424;2023-02-26T14:10:26;1.38;;;0.70;;
23470;SDS011;11908;50.806;4.424;2023-02-26T14:13:39;3.38;;;0.95;;
23470;SDS011;11908;50.806;4.424;2023-02-26T14:16:08;1.33;;;0.93;;
23470;SDS011;11908;50.806;4.424;2023-02-26T14:23:51;1.83;;;1.15;;
23470;SDS011;11908;50.806;4.424;2023-02-26T14:26:47;1.92;;;0.93;;
23470;SDS011;11908;50.806;4.424;2023-02-26T14:29:24;2.05;;;1.00;;
23470;SDS011;11908;50.806;4.424;2023-02-26T14:32:11;1.90;;;1.00;;
23470;SDS011;11908;50.806;4.424;2023-02-26T14:34:45;2.08;;;1.10;;
23470;SDS011;11908;50.806;4.424;2023-02-26T14:37:14;3.13;;;0.90;;
23470;SDS011;11908;50.806;4.424;2023-02-26T14:40:28;2.17;;;0.90;;
23470;SDS011;11908;50.806;4.424;2023-02-26T14:42:40;1.08;;;0.90;;
23470;SDS011;11908;50.806;4.424;2023-02-26T14:45:16;2.80;;;1.35;;
23470;SDS011;11908;50.806;4.424;2023-02-26T14:50:13;3.20;;;1.20;;
23470;SDS011;11908;50.806;4.424;2023-02-26T14:55:49;2.38;;;0.90;;
23470;SDS011;11908;50.806;4.424;2023-02-26T15:06:14;3.45;;;1.30;;
23470;SDS011;11908;50.806;4.424;2023-02-26T15:09:01;3.70;;;1.38;;
23470;SDS011;11908;50.806;4.424;2023-02-26T15:14:41;3.00;;;0.98;;
23470;SDS011;11908;50.806;4.424;2023-02-26T15:23:06;4.28;;;1.38;;
23470;SDS011;11908;50.806;4.424;2023-02-26T15:25:41;2.28;;;1.00;;
23470;SDS011;11908;50.806;4.424;2023-02-26T15:28:30;3.67;;;1.40;;
23470;SDS011;11908;50.806;4.424;2023-02-26T15:31:03;4.60;;;1.30;;
23470;SDS011;11908;50.806;4.424;2023-02-26T15:33:30;6.10;;;1.67;;
23470;SDS011;11908;50.806;4.424;2023-02-26T15:35:57;6.95;;;1.02;;
23470;SDS011;11908;50.806;4.424;2023-02-26T15:38:24;3.03;;;1.40;;
23470;SDS011;11908;50.806;4.424;2023-02-26T15:40:51;3.03;;;1.23;;
23470;SDS011;11908;50.806;4.424;2023-02-26T15:43:26;2.08;;;1.25;;
23470;SDS011;11908;50.806;4.424;2023-02-26T15:45:53;2.65;;;1.00;;
23470;SDS011;11908;50.806;4.424;2023-02-26T15:48:26;7.65;;;1.20;;
23470;SDS011;11908;50.806;4.424;2023-02-26T15:50:53;2.25;;;1.17;;
23470;SDS011;11908;50.806;4.424;2023-02-26T15:56:00;3.83;;;1.30;;
23470;SDS011;11908;50.806;4.424;2023-02-26T15:58:34;1.73;;;1.15;;
23470;SDS011;11908;50.806;4.424;2023-02-26T16:01:12;2.92;;;1.20;;
23470;SDS011;11908;50.806;4.424;2023-02-26T16:03:41;4.28;;;1.50;;
23470;SDS011;11908;50.806;4.424;2023-02-26T16:06:10;1.80;;;1.20;;
23470;SDS011;11908;50.806;4.424;2023-02-26T16:08:58;3.65;;;1.10;;
23470;SDS011;11908;50.806;4.424;2023-02-26T16:11:25;3.28;;;1.55;;
23470;SDS011;11908;50.806;4.424;2023-02-26T16:13:55;2.88;;;1.20;;
23470;SDS011;11908;50.806;4.424;2023-02-26T16:16:24;2.13;;;1.13;;
23470;SDS011;11908;50.806;4.424;2023-02-26T16:18:53;4.50;;;1.38;;
23470;SDS011;11908;50.806;4.424;2023-02-26T16:21:41;3.85;;;1.20;;
23470;SDS011;11908;50.806;4.424;2023-02-26T16:24:07;2.65;;;1.35;;
23470;SDS011;11908;50.806;4.424;2023-02-26T16:26:38;2.15;;;1.08;;
23470;SDS011;11908;50.806;4.424;2023-02-26T16:29:12;2.30;;;1.27;;
23470;SDS011;11908;50.806;4.424;2023-02-26T16:31:49;7.78;;;1.83;;
23470;SDS011;11908;50.806;4.424;2023-02-26T16:42:36;1.85;;;1.20;;
23470;SDS011;11908;50.806;4.424;2023-02-26T16:48:45;4.93;;;2.40;;
23470;SDS011;11908;50.806;4.424;2023-02-26T16:51:12;1.77;;;1.13;;
23470;SDS011;11908;50.806;4.424;2023-02-26T16:56:10;1.73;;;1.13;;
23470;SDS011;11908;50.806;4.424;2023-02-26T16:58:41;2.50;;;1.42;;
23470;SDS011;11908;50.806;4.424;2023-02-26T17:01:15;4.20;;;1.80;;
23470;SDS011;11908;50.806;4.424;2023-02-26T17:03:56;4.15;;;2.20;;
23470;SDS011;11908;50.806;4.424;2023-02-26T17:06:26;2.95;;;1.60;;
23470;SDS011;11908;50.806;4.424;2023-02-26T17:08:59;4.93;;;1.80;;
23470;SDS011;11908;50.806;4.424;2023-02-26T17:16:43;2.45;;;1.50;;
23470;SDS011;11908;50.806;4.424;2023-02-26T17:19:10;7.07;;;2.00;;
23470;SDS011;11908;50.806;4.424;2023-02-26T17:21:36;4.03;;;1.88;;
23470;SDS011;11908;50.806;4.424;2023-02-26T17:24:17;2.08;;;1.60;;
23470;SDS011;11908;50.806;4.424;2023-02-26T17:26:45;5.80;;;2.00;;
23470;SDS011;11908;50.806;4.424;2023-02-26T17:29:18;4.95;;;1.88;;
23470;SDS011;11908;50.806;4.424;2023-02-26T17:31:47;3.50;;;1.73;;
23470;SDS011;11908;50.806;4.424;2023-02-26T17:34:13;9.57;;;1.98;;
23470;SDS011;11908;50.806;4.424;2023-02-26T17:36:39;3.47;;;1.90;;
23470;SDS011;11908;50.806;4.424;2023-02-26T17:39:05;6.43;;;2.22;;
23470;SDS011;11908;50.806;4.424;2023-02-26T17:41:31;4.80;;;1.90;;
23470;SDS011;11908;50.806;4.424;2023-02-26T17:43:58;4.20;;;1.83;;
23470;SDS011;11908;50.806;4.424;2023-02-26T17:46:24;3.67;;;1.88;;
23470;SDS011;11908;50.806;4.424;2023-02-26T17:48:49;7.40;;;2.05;;
23470;SDS011;11908;50.806;4.424;2023-02-26T17:51:15;5.70;;;2.25;;
23470;SDS011;11908;50.806;4.424;2023-02-26T17:53:41;5.63;;;2.35;;
23470;SDS011;11908;50.806;4.424;2023-02-26T17:56:13;5.28;;;2.45;;
23470;SDS011;11908;50.806;4.424;2023-02-26T17:58:44;5.13;;;2.13;;
23470;SDS011;11908;50.806;4.424;2023-02-26T18:01:10;4.47;;;2.63;;
23470;SDS011;11908;50.806;4.424;2023-02-26T18:03:35;5.28;;;2.17;;
23470;SDS011;11908;50.806;4.424;2023-02-26T18:06:03;6.38;;;2.40;;
23470;SDS011;11908;50.806;4.424;2023-02-26T18:08:30;5.35;;;2.53;;
23470;SDS011;11908;50.806;4.424;2023-02-26T18:10:57;5.90;;;2.45;;
23470;SDS011;11908;50.806;4.424;2023-02-26T18:13:24;4.00;;;2.33;;
23470;SDS011;11908;50.806;4.424;2023-02-26T18:15:51;4.43;;;2.65;;
23470;SDS011;11908;50.806;4.424;2023-02-26T18:18:17;5.63;;;2.78;;